createdAt,value
2019-05-06T00:02:20.661Z,8.01
2019-05-06T00:04:47.745Z,8.20
2019-05-06T00:07:14.833Z,8.36
2019-05-06T00:09:44.075Z,8.43
2019-05-06T00:12:10.851Z,8.49
2019-05-06T00:14:38.133Z,8.60
2019-05-06T00:17:06.639Z,8.69
2019-05-06T00:19:34.216Z,8.75
2019-05-06T00:22:04.570Z,8.59
2019-05-06T00:24:38.233Z,8.13
2019-05-06T00:27:30.086Z,7.70
2019-05-06T00:29:57.186Z,7.62
2019-05-06T00:32:24.420Z,7.55
2019-05-06T00:34:51.648Z,7.83
2019-05-06T00:37:18.717Z,8.02
2019-05-06T00:39:54.809Z,8.16
2019-05-06T00:42:34.614Z,8.32
2019-05-06T00:45:04.248Z,8.43
2019-05-06T00:47:31.148Z,8.32
2019-05-06T00:49:58.223Z,8.08
2019-05-06T00:52:25.983Z,8.12
2019-05-06T00:54:54.662Z,8.12
2019-05-06T00:57:43.854Z,8.21
2019-05-06T01:00:20.077Z,8.15
2019-05-06T01:02:47.333Z,8.28
2019-05-06T01:05:14.927Z,8.47
2019-05-06T01:07:43.994Z,8.47
2019-05-06T01:10:13.738Z,8.45
2019-05-06T01:12:44.506Z,8.53
2019-05-06T01:15:16.485Z,8.09
2019-05-06T01:17:44.342Z,7.20
2019-05-06T01:20:13.847Z,7.46
2019-05-06T01:22:43.517Z,7.66
2019-05-06T01:25:10.931Z,7.62
2019-05-06T01:27:37.990Z,7.29
2019-05-06T01:30:05.435Z,7.25
2019-05-06T01:32:34.582Z,7.48
2019-05-06T01:35:04.633Z,7.83
2019-05-06T01:37:32.184Z,7.97
2019-05-06T01:40:17.645Z,7.76
2019-05-06T01:42:55.652Z,7.80
2019-05-06T01:45:23.763Z,7.13
2019-05-06T01:47:50.957Z,6.82
2019-05-06T01:50:23.535Z,6.84
2019-05-06T01:52:50.853Z,6.92
2019-05-06T01:55:17.935Z,6.64
2019-05-06T01:57:45.386Z,6.67
2019-05-06T02:00:14.125Z,6.58
2019-05-06T02:02:41.342Z,6.37
2019-05-06T02:05:08.910Z,6.22
2019-05-06T02:07:36.023Z,6.20
2019-05-06T02:10:04.161Z,6.35
2019-05-06T02:12:31.260Z,6.10
2019-05-06T02:14:58.285Z,6.04
2019-05-06T02:17:25.366Z,5.83
2019-05-06T02:19:54.710Z,5.78
2019-05-06T02:22:29.308Z,5.89
2019-05-06T02:25:00.156Z,5.90
2019-05-06T02:27:27.179Z,6.17
2019-05-06T02:30:05.456Z,6.25
2019-05-06T02:32:39.790Z,6.54
2019-05-06T02:35:29.681Z,6.65
2019-05-06T02:37:56.723Z,6.51
2019-05-06T02:40:25.682Z,6.58
2019-05-06T02:42:54.679Z,6.78
2019-05-06T02:45:33.211Z,6.85
2019-05-06T02:48:13.854Z,6.22
2019-05-06T02:51:03.758Z,5.73
2019-05-06T02:53:33.414Z,5.37
2019-05-06T02:55:59.967Z,5.16
2019-05-06T02:58:27.382Z,5.15
2019-05-06T03:00:54.427Z,5.03
2019-05-06T03:03:23.326Z,5.09
2019-05-06T03:05:53.230Z,5.10
2019-05-06T03:08:19.410Z,5.00
2019-05-06T03:10:46.452Z,4.82
2019-05-06T03:13:15.318Z,4.65
2019-05-06T03:15:43.349Z,4.51
2019-05-06T03:18:14.332Z,4.47
2019-05-06T03:21:04.836Z,4.38
2019-05-06T03:23:34.922Z,4.30
2019-05-06T03:26:05.761Z,4.25
2019-05-06T03:28:33.356Z,4.16
2019-05-06T03:31:06.026Z,4.11
2019-05-06T03:33:46.594Z,4.12
2019-05-06T03:36:13.561Z,3.99
2019-05-06T03:38:29.183Z,3.91
2019-05-06T03:40:56.964Z,3.97
2019-05-06T03:43:24.016Z,3.95
2019-05-06T03:46:14.297Z,3.96
2019-05-06T03:48:44.319Z,4.00
2019-05-06T03:51:14.791Z,4.23
2019-05-06T03:53:46.143Z,4.25
2019-05-06T03:56:19.713Z,4.14
2019-05-06T03:58:48.262Z,4.13
2019-05-06T04:01:16.285Z,4.33
2019-05-06T04:03:51.337Z,4.44
2019-05-06T04:06:14.945Z,4.54
2019-05-06T04:08:43.720Z,4.62
2019-05-06T04:11:16.374Z,4.74
2019-05-06T04:13:45.260Z,4.79
2019-05-06T04:16:23.078Z,4.88
2019-05-06T04:19:18.637Z,4.97
2019-05-06T04:21:53.215Z,4.99
2019-05-06T04:24:44.889Z,5.14
2019-05-06T04:27:38.254Z,5.39
2019-05-06T04:30:05.638Z,5.80
2019-05-06T04:32:34.097Z,5.94
2019-05-06T04:35:04.366Z,5.97
2019-05-06T04:37:33.621Z,6.15
2019-05-06T04:39:59.853Z,6.31
2019-05-06T04:42:27.212Z,6.47
2019-05-06T04:44:54.485Z,6.76
2019-05-06T04:47:24.092Z,7.18
2019-05-06T04:49:53.189Z,7.58
2019-05-06T04:52:22.898Z,7.80
2019-05-06T04:54:49.346Z,8.09
2019-05-06T04:57:17.425Z,8.36
2019-05-06T04:59:46.271Z,8.60
2019-05-06T05:02:46.336Z,8.69
2019-05-06T05:05:46.173Z,8.36
2019-05-06T05:08:15.208Z,8.29
2019-05-06T05:11:08.265Z,7.97
2019-05-06T05:13:49.109Z,8.29
2019-05-06T05:16:23.626Z,7.42
2019-05-06T05:19:00.002Z,6.82
2019-05-06T05:21:27.101Z,7.27
2019-05-06T05:23:54.114Z,6.79
2019-05-06T05:26:27.321Z,7.07
2019-05-06T05:28:55.039Z,6.86
2019-05-06T05:31:23.028Z,6.77
2019-05-06T05:33:52.556Z,6.90
2019-05-06T05:36:19.870Z,6.22
2019-05-06T05:38:47.104Z,6.25
2019-05-06T05:41:14.681Z,6.28
2019-05-06T05:43:46.903Z,5.86
2019-05-06T05:46:14.267Z,5.69
2019-05-06T05:49:18.470Z,5.60
2019-05-06T05:51:45.229Z,5.90
2019-05-06T05:54:12.533Z,6.30
2019-05-06T05:56:40.535Z,6.12
2019-05-06T06:02:13.528Z,6.20
2019-05-06T06:04:51.987Z,6.27
2019-05-06T06:07:12.149Z,6.26
2019-05-06T06:09:49.811Z,6.49
2019-05-06T06:12:16.981Z,7.23
2019-05-06T06:15:15.345Z,7.48
2019-05-06T06:18:03.096Z,8.00
2019-05-06T06:20:50.303Z,7.20
2019-05-06T06:23:23.831Z,7.37
2019-05-06T06:25:52.917Z,7.18
2019-05-06T06:28:20.174Z,7.35
2019-05-06T06:30:57.087Z,7.81
2019-05-06T06:33:24.162Z,8.30
2019-05-06T06:35:58.528Z,8.38
2019-05-06T06:38:49.487Z,10.63
2019-05-06T06:41:18.210Z,10.26
2019-05-06T06:49:54.379Z,12.01
2019-05-06T06:52:23.118Z,12.09
2019-05-06T06:54:52.691Z,10.98
2019-05-06T06:57:58.091Z,12.02
2019-05-06T07:00:34.816Z,13.55
2019-05-06T07:03:09.197Z,11.78
2019-05-06T07:05:57.359Z,11.04
2019-05-06T07:08:33.881Z,9.44
2019-05-06T07:10:53.403Z,10.13
2019-05-06T07:13:20.450Z,10.61
2019-05-06T07:15:47.546Z,9.28
2019-05-06T07:18:16.188Z,9.78
2019-05-06T07:21:22.512Z,10.38
2019-05-06T07:23:49.915Z,9.10
2019-05-06T07:26:19.387Z,8.61
2019-05-06T07:28:49.002Z,8.43
2019-05-06T07:31:22.397Z,8.99
2019-05-06T07:33:45.548Z,10.24
2019-05-06T07:36:13.182Z,9.87
2019-05-06T07:38:48.880Z,10.74
2019-05-06T07:41:53.409Z,9.28
2019-05-06T07:44:42.346Z,9.31
2019-05-06T07:47:17.208Z,10.17
2019-05-06T07:49:46.139Z,12.15
2019-05-06T07:52:13.270Z,13.54
2019-05-06T07:54:42.433Z,14.94
2019-05-06T07:57:09.535Z,13.67
2019-05-06T07:59:37.692Z,14.95
2019-05-06T08:02:05.292Z,16.26
2019-05-06T08:04:32.588Z,15.82
2019-05-06T08:06:59.775Z,14.98
2019-05-06T08:09:26.881Z,14.60
2019-05-06T08:11:53.963Z,13.22
2019-05-06T08:14:22.541Z,12.61
2019-05-06T08:16:57.411Z,13.64
2019-05-06T08:19:24.491Z,16.18
2019-05-06T08:21:53.778Z,17.67
2019-05-06T08:24:22.747Z,15.92
2019-05-06T08:26:52.095Z,12.93
2019-05-06T08:29:18.987Z,12.78
2019-05-06T08:31:46.069Z,12.67
2019-05-06T08:34:13.136Z,12.75
2019-05-06T08:36:58.925Z,14.11
2019-05-06T08:39:27.143Z,18.04
2019-05-06T08:41:54.256Z,19.97
2019-05-06T08:44:22.477Z,16.56
2019-05-06T08:46:49.747Z,13.86
2019-05-06T08:49:16.784Z,13.25
2019-05-06T08:51:54.202Z,14.46
2019-05-06T08:54:33.485Z,16.61
2019-05-06T08:57:02.587Z,16.70
2019-05-06T08:59:32.170Z,16.36
2019-05-06T09:02:03.111Z,15.37
2019-05-06T09:04:32.158Z,14.89
2019-05-06T09:06:59.302Z,12.87
2019-05-06T09:09:26.435Z,12.25
2019-05-06T09:11:53.736Z,11.57
2019-05-06T09:14:23.163Z,11.37
2019-05-06T09:16:53.225Z,11.46
2019-05-06T09:19:19.134Z,11.99
2019-05-06T09:21:46.566Z,11.25
2019-05-06T09:24:13.821Z,11.01
2019-05-06T09:26:52.312Z,10.55
2019-05-06T09:29:32.544Z,10.51
2019-05-06T09:32:03.668Z,10.53
2019-05-06T09:34:43.117Z,10.25
2019-05-06T09:37:13.364Z,10.55
2019-05-06T09:39:45.082Z,10.65
2019-05-06T09:42:12.940Z,10.36
2019-05-06T09:44:42.731Z,10.64
2019-05-06T09:47:14.878Z,10.56
2019-05-06T09:49:42.692Z,11.24
2019-05-06T09:52:09.781Z,11.44
2019-05-06T09:54:56.650Z,11.87
2019-05-06T09:57:27.174Z,11.77
2019-05-06T09:59:54.245Z,12.72
2019-05-06T10:02:23.034Z,14.37
2019-05-06T10:04:53.386Z,15.12
2019-05-06T10:07:22.633Z,15.90
2019-05-06T10:09:52.373Z,15.18
2019-05-06T10:12:19.132Z,14.54
2019-05-06T10:14:46.467Z,14.72
2019-05-06T10:17:13.661Z,13.56
2019-05-06T10:19:42.976Z,14.10
2019-05-06T10:22:12.641Z,13.09
2019-05-06T10:24:39.648Z,17.27
2019-05-06T10:27:07.038Z,18.40
2019-05-06T10:29:59.747Z,20.61
2019-05-06T10:32:32.819Z,22.57
2019-05-06T10:35:02.735Z,23.66
2019-05-06T10:38:07.146Z,20.18
2019-05-06T10:40:56.250Z,16.46
2019-05-06T10:43:27.475Z,13.35
2019-05-06T10:45:54.755Z,12.38
2019-05-06T10:48:23.485Z,11.33
2019-05-06T10:50:54.195Z,10.94
2019-05-06T10:53:23.508Z,10.82
2019-05-06T10:55:55.046Z,10.65
2019-05-06T10:58:22.681Z,10.66
2019-05-06T11:00:55.941Z,10.77
2019-05-06T11:03:23.146Z,10.98
2019-05-06T11:05:53.140Z,11.37
2019-05-06T11:08:21.965Z,12.25
2019-05-06T11:11:11.059Z,12.16
2019-05-06T11:13:37.428Z,11.45
2019-05-06T11:16:05.446Z,13.01
2019-05-06T11:18:33.606Z,14.41
2019-05-06T11:21:03.210Z,14.38
2019-05-06T11:23:29.677Z,19.81
2019-05-06T11:25:56.729Z,25.68
2019-05-06T11:28:42.970Z,23.80
2019-05-06T11:31:18.672Z,24.98
2019-05-06T11:34:02.502Z,30.38
2019-05-06T11:36:34.281Z,32.48
2019-05-06T11:39:05.381Z,29.04
2019-05-06T11:41:32.800Z,26.39
2019-05-06T11:43:59.861Z,19.90
2019-05-06T11:46:27.065Z,23.41
2019-05-06T11:48:54.242Z,19.67
2019-05-06T11:51:23.353Z,22.19
2019-05-06T11:53:53.842Z,24.47
2019-05-06T11:56:19.395Z,22.48
2019-05-06T11:58:53.153Z,25.25
2019-05-06T12:01:28.216Z,25.75
2019-05-06T12:03:56.699Z,21.08
2019-05-06T12:06:24.058Z,18.64
2019-05-06T12:08:52.416Z,15.83
2019-05-06T12:11:20.169Z,16.65
2019-05-06T12:13:53.016Z,16.24
2019-05-06T12:16:25.545Z,18.29
2019-05-06T12:18:49.174Z,19.75
2019-05-06T12:21:19.225Z,23.31
2019-05-06T12:23:45.524Z,26.22
2019-05-06T12:26:13.407Z,25.51
2019-05-06T12:28:43.164Z,18.80
2019-05-06T12:31:12.510Z,19.18
2019-05-06T12:33:46.512Z,18.89
2019-05-06T12:36:24.086Z,18.90
2019-05-06T12:39:15.745Z,16.51
2019-05-06T12:42:00.777Z,17.39
2019-05-06T12:44:28.601Z,16.13
2019-05-06T12:47:15.604Z,14.70
2019-05-06T12:49:42.840Z,14.48
2019-05-06T12:52:13.698Z,15.71
2019-05-06T12:54:42.992Z,15.76
2019-05-06T12:57:12.439Z,15.95
2019-05-06T12:59:39.083Z,16.72
2019-05-06T13:02:06.178Z,17.60
2019-05-06T13:04:49.443Z,20.05
2019-05-06T13:07:03.235Z,19.98
2019-05-06T13:09:32.946Z,15.54
2019-05-06T13:12:03.948Z,15.04
2019-05-06T13:14:34.861Z,14.90
2019-05-06T13:17:02.631Z,14.31
2019-05-06T13:19:32.197Z,13.54
2019-05-06T13:22:03.218Z,13.38
2019-05-06T13:24:28.821Z,13.47
2019-05-06T13:26:58.815Z,14.03
2019-05-06T13:29:28.118Z,14.66
2019-05-06T13:31:55.249Z,14.19
2019-05-06T13:34:23.641Z,14.72
2019-05-06T13:36:53.294Z,14.84
2019-05-06T13:39:19.964Z,15.63
2019-05-06T13:41:52.862Z,15.70
2019-05-06T13:44:22.822Z,14.87
2019-05-06T13:46:53.376Z,14.66
2019-05-06T13:49:52.756Z,15.62
2019-05-06T13:52:23.713Z,15.51
2019-05-06T13:54:52.967Z,16.03
2019-05-06T13:57:19.845Z,14.13
2019-05-06T13:59:46.955Z,15.60
2019-05-06T14:02:39.212Z,15.10
2019-05-06T14:05:07.231Z,16.83
2019-05-06T14:07:34.916Z,17.97
2019-05-06T14:10:02.769Z,18.19
2019-05-06T14:12:33.232Z,16.45
2019-05-06T14:15:08.745Z,15.90
2019-05-06T14:17:36.507Z,16.21
2019-05-06T14:20:08.360Z,14.20
2019-05-06T14:22:35.635Z,13.53
2019-05-06T14:25:38.257Z,13.53
2019-05-06T14:28:24.898Z,13.47
2019-05-06T14:31:12.703Z,15.26
2019-05-06T14:33:45.621Z,15.93
2019-05-06T14:36:18.323Z,15.66
2019-05-06T14:38:45.775Z,14.69
2019-05-06T14:41:17.902Z,13.77
2019-05-06T14:43:45.198Z,13.62
2019-05-06T14:46:12.512Z,14.32
2019-05-06T14:48:39.588Z,15.03
2019-05-06T14:51:06.690Z,15.29
2019-05-06T14:53:33.843Z,13.82
2019-05-06T14:56:06.840Z,13.28
2019-05-06T14:58:33.989Z,13.67
2019-05-06T15:01:03.518Z,13.58
2019-05-06T15:03:32.600Z,13.69
2019-05-06T15:05:59.769Z,13.55
2019-05-06T15:08:27.953Z,12.88
2019-05-06T15:11:02.909Z,13.31
2019-05-06T15:13:32.087Z,13.94
2019-05-06T15:15:59.196Z,13.94
2019-05-06T15:18:26.325Z,14.01
2019-05-06T15:20:56.101Z,14.97
2019-05-06T15:23:24.388Z,14.77
2019-05-06T15:25:52.451Z,14.40
2019-05-06T15:28:19.744Z,13.62
2019-05-06T15:31:03.256Z,14.17
2019-05-06T15:33:35.850Z,14.18
2019-05-06T15:36:12.874Z,13.69
2019-05-06T15:38:42.018Z,13.67
2019-05-06T15:41:09.306Z,13.81
2019-05-06T15:43:37.690Z,14.37
2019-05-06T15:46:05.916Z,13.61
2019-05-06T15:48:35.858Z,13.88
2019-05-06T15:51:03.383Z,13.55
2019-05-06T15:53:33.553Z,13.74
2019-05-06T15:56:00.683Z,13.92
2019-05-06T15:58:27.804Z,14.58
2019-05-06T16:00:55.866Z,14.89
2019-05-06T16:03:23.382Z,14.51
2019-05-06T16:05:52.801Z,14.17
2019-05-06T16:08:19.736Z,14.26
2019-05-06T16:10:52.541Z,13.32
2019-05-06T16:13:16.576Z,13.25
2019-05-06T16:15:43.663Z,13.40
2019-05-06T16:18:12.960Z,12.95
2019-05-06T16:20:39.894Z,13.60
2019-05-06T16:23:36.411Z,13.75
2019-05-06T16:26:03.658Z,14.11
2019-05-06T16:28:32.095Z,14.00
2019-05-06T16:31:02.421Z,12.92
2019-05-06T16:33:29.725Z,12.47
2019-05-06T16:35:57.119Z,12.19
2019-05-06T16:38:24.370Z,11.97
2019-05-06T16:41:10.360Z,11.89
2019-05-06T16:43:27.179Z,11.93
2019-05-06T16:45:56.168Z,12.24
2019-05-06T16:48:23.187Z,12.48
2019-05-06T16:50:51.513Z,12.42
2019-05-06T16:53:24.436Z,12.65
2019-05-06T16:55:57.913Z,12.82
2019-05-06T16:58:27.533Z,12.38
2019-05-06T17:00:54.677Z,12.41
2019-05-06T17:03:27.817Z,12.38
2019-05-06T17:06:24.944Z,12.61
2019-05-06T17:08:52.874Z,12.36
2019-05-06T17:11:28.222Z,13.10
2019-05-06T17:13:49.739Z,12.77
2019-05-06T17:16:17.136Z,13.13
2019-05-06T17:18:45.848Z,12.97
2019-05-06T17:21:13.219Z,12.53
2019-05-06T17:23:42.337Z,12.40
2019-05-06T17:26:09.767Z,12.80
2019-05-06T17:28:56.506Z,12.66
2019-05-06T17:31:42.455Z,12.60
2019-05-06T17:34:12.853Z,12.79
2019-05-06T17:36:42.147Z,12.91
2019-05-06T17:39:09.886Z,12.55
2019-05-06T17:41:45.870Z,12.07
2019-05-06T17:44:12.052Z,12.09
2019-05-06T17:46:48.465Z,12.08
2019-05-06T17:49:23.014Z,12.07
2019-05-06T17:52:02.893Z,11.86
2019-05-06T17:54:31.665Z,11.74
2019-05-06T17:57:04.602Z,11.70
2019-05-06T17:59:37.506Z,11.65
2019-05-06T18:02:11.161Z,11.56
2019-05-06T18:04:38.257Z,11.75
2019-05-06T18:07:05.510Z,11.44
2019-05-06T18:09:35.227Z,11.43
2019-05-06T18:12:03.280Z,11.38
2019-05-06T18:14:33.261Z,11.31
2019-05-06T18:17:03.627Z,11.21
2019-05-06T18:19:33.164Z,11.11
2019-05-06T18:22:02.398Z,11.00
2019-05-06T18:24:29.560Z,10.96
2019-05-06T18:26:56.683Z,10.92
2019-05-06T18:29:26.934Z,10.81
2019-05-06T18:31:54.118Z,10.71
2019-05-06T18:34:23.184Z,10.72
2019-05-06T18:36:52.444Z,10.65
2019-05-06T18:39:22.068Z,10.56
2019-05-06T18:41:48.745Z,10.45
2019-05-06T18:44:15.881Z,10.37
2019-05-06T18:46:43.113Z,10.33
2019-05-06T18:49:10.325Z,10.25
2019-05-06T18:51:37.623Z,10.13
2019-05-06T18:54:04.750Z,10.05
2019-05-06T18:56:32.417Z,10.01
2019-05-06T18:59:02.964Z,9.96
2019-05-06T19:01:32.522Z,9.99
2019-05-06T19:04:13.809Z,9.90
2019-05-06T19:06:42.258Z,9.77
2019-05-06T19:09:32.739Z,9.59
2019-05-06T19:12:03.543Z,9.40
2019-05-06T19:14:32.946Z,9.19
2019-05-06T19:17:02.577Z,9.05
2019-05-06T19:19:34.914Z,9.06
2019-05-06T19:22:02.943Z,9.29
2019-05-06T19:24:33.744Z,9.45
2019-05-06T19:27:03.800Z,9.49
2019-05-06T19:29:33.078Z,9.47
2019-05-06T19:32:00.009Z,9.39
2019-05-06T19:34:27.400Z,9.35
2019-05-06T19:36:56.612Z,9.36
2019-05-06T19:39:23.917Z,9.47
2019-05-06T19:41:51.188Z,9.51
2019-05-06T19:44:18.403Z,9.57
2019-05-06T19:46:47.290Z,9.37
2019-05-06T19:49:14.578Z,9.31
2019-05-06T19:51:42.795Z,9.23
2019-05-06T19:54:12.695Z,9.23
2019-05-06T19:56:42.166Z,9.26
2019-05-06T19:59:09.339Z,9.36
2019-05-06T20:01:36.684Z,9.36
2019-05-06T20:04:03.835Z,9.39
2019-05-06T20:06:52.304Z,9.37
2019-05-06T20:09:46.658Z,9.44
2019-05-06T20:12:36.715Z,9.48
2019-05-06T20:15:23.212Z,9.48
2019-05-06T20:17:52.093Z,9.41
2019-05-06T20:20:19.456Z,9.26
2019-05-06T20:22:48.568Z,9.24
2019-05-06T20:25:15.671Z,9.30
2019-05-06T20:27:42.772Z,9.45
2019-05-06T20:30:12.600Z,9.63
2019-05-06T20:32:44.791Z,9.78
2019-05-06T20:35:13.145Z,9.83
2019-05-06T20:37:42.560Z,9.81
2019-05-06T20:40:12.490Z,9.74
2019-05-06T20:42:42.669Z,9.71
2019-05-06T20:45:12.688Z,9.68
2019-05-06T20:47:39.650Z,9.63
2019-05-06T20:50:13.226Z,9.69
2019-05-06T20:52:42.433Z,9.69
2019-05-06T20:55:12.612Z,9.71
2019-05-06T20:57:39.004Z,9.71
2019-05-06T21:00:07.314Z,9.76
2019-05-06T21:02:37.166Z,9.74
2019-05-06T21:05:04.895Z,9.71
2019-05-06T21:07:32.428Z,9.79
2019-05-06T21:10:02.091Z,9.75
2019-05-06T21:12:28.896Z,9.77
2019-05-06T21:14:55.976Z,9.84
2019-05-06T21:17:23.080Z,9.75
2019-05-06T21:19:51.926Z,9.67
2019-05-06T21:22:21.241Z,9.54
2019-05-06T21:24:48.451Z,9.52
2019-05-06T21:27:16.557Z,9.57
2019-05-06T21:29:43.734Z,9.65
2019-05-06T21:32:10.871Z,9.79
2019-05-06T21:34:40.591Z,9.82
2019-05-06T21:37:07.621Z,9.89
2019-05-06T21:39:34.707Z,9.94
2019-05-06T21:42:01.816Z,10.02
2019-05-06T21:44:28.906Z,10.09
2019-05-06T21:46:56.043Z,10.16
2019-05-06T21:49:23.352Z,10.25
2019-05-06T21:51:50.431Z,10.31
2019-05-06T21:54:17.595Z,10.36
2019-05-06T21:56:44.830Z,10.36
2019-05-06T21:59:12.912Z,10.43
2019-05-06T22:01:42.928Z,9.87
2019-05-06T22:04:09.875Z,8.76
2019-05-06T22:06:37.042Z,8.18
2019-05-06T22:09:05.453Z,8.14
2019-05-06T22:11:36.241Z,8.70
2019-05-06T22:14:03.306Z,9.22
2019-05-06T22:16:32.374Z,9.69
2019-05-06T22:19:02.563Z,9.68
2019-05-06T22:21:32.009Z,9.13
2019-05-06T22:24:04.175Z,8.67
2019-05-06T22:26:32.309Z,8.59
2019-05-06T22:28:59.002Z,8.44
2019-05-06T22:31:26.579Z,8.70
2019-05-06T22:33:54.195Z,8.46
2019-05-06T22:36:22.827Z,8.19
2019-05-06T22:38:50.042Z,8.26
2019-05-06T22:41:17.085Z,8.63
2019-05-06T22:43:44.244Z,9.15
2019-05-06T22:46:12.369Z,9.38
2019-05-06T22:48:39.748Z,9.12
2019-05-06T22:51:06.806Z,9.12
2019-05-06T22:53:33.925Z,9.45
2019-05-06T22:56:03.724Z,9.69
2019-05-06T22:58:34.405Z,9.73
2019-05-06T23:01:04.648Z,9.81
2019-05-06T23:03:34.541Z,9.99
2019-05-06T23:06:02.547Z,10.17
2019-05-06T23:08:32.322Z,10.36
2019-05-06T23:10:59.116Z,10.37
2019-05-06T23:13:26.183Z,10.48
2019-05-06T23:15:53.229Z,10.57
2019-05-06T23:18:22.291Z,10.42
2019-05-06T23:20:49.264Z,10.09
2019-05-06T23:23:16.380Z,10.18
2019-05-06T23:25:46.536Z,10.35
2019-05-06T23:28:14.680Z,10.41
2019-05-06T23:30:42.872Z,10.34
2019-05-06T23:33:11.778Z,10.34
2019-05-06T23:35:39.598Z,10.41
2019-05-06T23:38:43.638Z,10.32
2019-05-06T23:41:47.419Z,10.31
2019-05-06T23:44:54.509Z,10.26
2019-05-06T23:47:56.691Z,10.17
2019-05-06T23:51:00.794Z,10.16
2019-05-06T23:54:04.722Z,9.92
2019-05-06T23:56:43.566Z,9.97
2019-05-06T23:59:12.509Z,9.94
